createdAt,value
2022-12-06T00:00:25.442Z,2.56
2022-12-06T00:03:27.722Z,2.58
2022-12-06T00:06:12.626Z,2.48
2022-12-06T00:08:56.832Z,2.62
2022-12-06T00:12:17.126Z,2.58
2022-12-06T00:14:45.468Z,2.47
2022-12-06T00:17:33.131Z,2.58
2022-12-06T00:20:15.134Z,2.57
2022-12-06T00:22:53.345Z,2.53
2022-12-06T00:25:27.070Z,2.70
2022-12-06T00:27:55.690Z,2.67
2022-12-06T00:30:27.208Z,2.53
2022-12-06T00:32:55.703Z,2.58
2022-12-06T00:35:42.261Z,2.62
2022-12-06T00:38:11.902Z,2.61
2022-12-06T00:40:44.494Z,2.73
2022-12-06T00:43:24.727Z,2.55
2022-12-06T00:45:53.861Z,2.56
2022-12-06T00:48:22.624Z,2.50
2022-12-06T00:51:19.073Z,2.63
2022-12-06T00:53:47.630Z,2.40
2022-12-06T00:57:10.315Z,2.59
2022-12-06T00:59:27.600Z,2.62
2022-12-06T01:02:07.746Z,2.46
2022-12-06T01:08:05.293Z,2.65
2022-12-06T01:10:42.314Z,2.59
2022-12-06T01:16:27.218Z,2.64
2022-12-06T01:19:13.278Z,2.37
2022-12-06T01:21:55.231Z,2.84
2022-12-06T01:24:29.850Z,2.62
2022-12-06T01:27:13.989Z,2.57
2022-12-06T01:30:01.056Z,2.56
2022-12-06T01:32:45.821Z,2.40
2022-12-06T01:35:12.919Z,2.39
2022-12-06T01:37:48.858Z,2.53
2022-12-06T01:43:41.756Z,2.43
2022-12-06T01:46:23.949Z,2.55
2022-12-06T01:49:20.621Z,2.46
2022-12-06T01:52:12.625Z,2.15
2022-12-06T01:54:40.591Z,2.37
2022-12-06T01:57:17.171Z,2.58
2022-12-06T02:00:03.747Z,2.53
2022-12-06T02:02:43.275Z,2.55
2022-12-06T02:05:17.540Z,2.60
2022-12-06T02:07:55.225Z,2.57
2022-12-06T02:10:54.650Z,2.51
2022-12-06T02:13:44.536Z,2.39
2022-12-06T02:20:19.190Z,2.65
2022-12-06T02:23:28.232Z,2.48
2022-12-06T02:26:25.676Z,2.50
2022-12-06T02:29:39.498Z,2.58
2022-12-06T02:32:18.249Z,2.71
2022-12-06T02:35:21.919Z,2.36
2022-12-06T02:38:07.703Z,2.61
2022-12-06T02:40:57.939Z,2.72
2022-12-06T02:43:43.843Z,2.72
2022-12-06T02:49:31.524Z,2.65
2022-12-06T02:52:15.327Z,2.60
2022-12-06T02:54:54.625Z,2.64
2022-12-06T02:57:53.160Z,2.57
2022-12-06T03:01:02.537Z,2.53
2022-12-06T03:03:55.588Z,2.54
2022-12-06T03:07:26.282Z,2.69
2022-12-06T03:09:59.454Z,2.62
2022-12-06T03:12:58.859Z,2.36
2022-12-06T03:25:32.165Z,2.68
2022-12-06T03:28:09.405Z,2.54
2022-12-06T03:30:59.324Z,2.38
2022-12-06T03:33:56.529Z,2.50
2022-12-06T03:36:28.771Z,2.62
2022-12-06T03:39:05.798Z,2.36
2022-12-06T03:41:56.390Z,2.56
2022-12-06T03:44:33.987Z,2.54
2022-12-06T03:50:16.387Z,2.65
2022-12-06T03:55:51.435Z,2.59
2022-12-06T03:58:32.272Z,2.66
2022-12-06T04:01:41.384Z,2.76
2022-12-06T04:04:22.544Z,2.53
2022-12-06T04:07:23.997Z,2.78
2022-12-06T04:10:05.816Z,2.69
2022-12-06T04:12:58.537Z,2.64
2022-12-06T04:15:50.602Z,2.70
2022-12-06T04:21:34.541Z,2.82
2022-12-06T04:24:13.795Z,2.69
2022-12-06T04:26:48.524Z,2.53
2022-12-06T04:30:02.256Z,2.45
2022-12-06T04:32:57.632Z,2.55
2022-12-06T04:36:00.031Z,2.63
2022-12-06T04:38:45.123Z,2.84
2022-12-06T04:41:33.682Z,2.75
2022-12-06T07:01:45.640Z,2.73
2022-12-06T07:04:21.606Z,2.82
2022-12-06T07:07:01.902Z,2.84
2022-12-06T07:09:39.748Z,2.84
2022-12-06T07:12:30.344Z,2.93
2022-12-06T07:15:00.677Z,2.80
2022-12-06T07:17:30.575Z,2.97
2022-12-06T07:20:04.059Z,2.93
2022-12-06T07:22:45.022Z,2.87
2022-12-06T07:25:26.418Z,2.96
2022-12-06T07:28:16.368Z,2.86
2022-12-06T07:31:01.398Z,2.88
2022-12-06T07:33:35.696Z,2.96
2022-12-06T07:36:17.333Z,2.81
2022-12-06T07:38:53.125Z,2.94
2022-12-06T07:41:46.734Z,3.08
2022-12-06T07:45:11.093Z,3.04
2022-12-06T07:47:44.714Z,2.82
2022-12-06T07:50:42.890Z,2.90
2022-12-06T07:56:23.524Z,2.70
2022-12-06T07:58:57.657Z,2.80
2022-12-06T08:02:14.528Z,2.96
2022-12-06T08:04:42.531Z,2.88
2022-12-06T08:07:30.846Z,2.97
2022-12-06T08:10:01.520Z,2.90
2022-12-06T08:12:32.781Z,3.06
2022-12-06T08:15:10.263Z,2.99
2022-12-06T08:17:52.937Z,2.91
2022-12-06T08:20:36.286Z,2.91
2022-12-06T08:23:08.865Z,2.77
2022-12-06T08:25:37.129Z,2.80
2022-12-06T08:28:04.834Z,3.02
2022-12-06T08:30:32.457Z,2.95
2022-12-06T08:33:02.757Z,2.95
2022-12-06T08:35:35.605Z,2.96
2022-12-06T08:38:15.837Z,3.03
2022-12-06T08:40:52.643Z,2.98
2022-12-06T08:43:34.041Z,2.95
2022-12-06T08:49:31.846Z,3.01
2022-12-06T08:58:11.010Z,3.18
2022-12-06T09:01:30.231Z,3.32
2022-12-06T09:04:47.358Z,3.20
2022-12-06T09:07:35.740Z,3.42
2022-12-06T09:10:05.444Z,3.44
2022-12-06T09:12:37.742Z,3.44
2022-12-06T09:15:39.921Z,3.50
2022-12-06T09:18:11.135Z,3.52
2022-12-06T09:20:46.836Z,3.32
2022-12-06T09:23:33.041Z,3.39
2022-12-06T09:55:52.260Z,3.79
2022-12-06T10:03:02.260Z,3.90
2022-12-06T10:05:35.093Z,3.93
2022-12-06T10:08:38.142Z,4.03
2022-12-06T10:11:10.586Z,3.97
2022-12-06T10:14:00.730Z,3.93
2022-12-06T10:16:33.297Z,3.99
2022-12-06T10:19:08.331Z,4.02
2022-12-06T10:22:00.859Z,4.04
2022-12-06T10:25:08.585Z,3.96
2022-12-06T10:27:39.365Z,4.01
2022-12-06T10:30:16.356Z,4.03
2022-12-06T10:33:16.844Z,4.18
2022-12-06T10:36:02.150Z,4.32
2022-12-06T10:39:22.934Z,4.40
2022-12-06T10:42:18.395Z,4.35
2022-12-06T10:45:07.344Z,4.25
2022-12-06T10:47:48.716Z,4.48
2022-12-06T10:50:22.396Z,4.29
2022-12-06T10:53:01.539Z,4.33
2022-12-06T10:55:48.263Z,4.45
2022-12-06T10:58:37.576Z,4.14
2022-12-06T11:01:34.544Z,4.32
2022-12-06T11:04:17.193Z,4.50
2022-12-06T11:06:55.629Z,4.47
2022-12-06T11:09:40.659Z,4.65
2022-12-06T11:12:31.938Z,4.56
2022-12-06T11:15:26.738Z,4.75
2022-12-06T11:18:02.599Z,4.77
2022-12-06T11:20:35.098Z,4.83
2022-12-06T11:23:20.645Z,4.94
2022-12-06T11:26:02.994Z,4.73
2022-12-06T11:28:43.814Z,4.87
2022-12-06T11:31:28.328Z,4.88
2022-12-06T11:33:55.096Z,5.05
2022-12-06T11:36:49.460Z,5.07
2022-12-06T11:39:16.792Z,5.05
2022-12-06T11:42:11.363Z,5.14
2022-12-06T11:44:49.279Z,4.89
2022-12-06T11:47:21.852Z,5.05
2022-12-06T11:49:54.487Z,5.03
2022-12-06T11:52:45.413Z,4.85
2022-12-06T11:55:19.627Z,4.81
2022-12-06T11:58:19.210Z,4.69
2022-12-06T12:01:12.245Z,5.06
2022-12-06T12:03:41.597Z,5.05
2022-12-06T12:06:30.172Z,5.09
2022-12-06T12:09:00.272Z,5.31
2022-12-06T12:11:33.634Z,5.17
2022-12-06T12:14:27.053Z,5.50
2022-12-06T12:17:01.542Z,5.22
2022-12-06T12:19:32.758Z,5.50
2022-12-06T12:22:13.183Z,5.54
2022-12-06T12:25:03.330Z,5.51
2022-12-06T12:27:34.245Z,5.47
2022-12-06T12:30:22.925Z,5.61
2022-12-06T12:32:52.558Z,5.65
2022-12-06T12:35:22.057Z,5.56
2022-12-06T12:37:51.295Z,5.63
2022-12-06T12:40:28.971Z,5.36
2022-12-06T12:43:03.048Z,5.48
2022-12-06T12:45:30.279Z,5.69
2022-12-06T12:48:03.481Z,5.95
2022-12-06T12:50:57.773Z,5.94
2022-12-06T12:53:42.354Z,6.07
2022-12-06T12:56:14.661Z,5.76
2022-12-06T12:58:48.252Z,5.69
2022-12-06T13:01:32.907Z,5.66
2022-12-06T13:04:13.320Z,5.71
2022-12-06T13:06:49.338Z,5.64
2022-12-06T13:09:28.570Z,5.47
2022-12-06T13:12:02.281Z,5.36
2022-12-06T13:14:34.692Z,5.49
2022-12-06T13:17:20.929Z,5.41
2022-12-06T13:19:53.388Z,5.02
2022-12-06T13:22:26.142Z,5.39
2022-12-06T13:25:00.198Z,5.29
2022-12-06T13:27:30.478Z,5.32
2022-12-06T13:30:03.257Z,5.18
2022-12-06T13:32:36.335Z,5.52
2022-12-06T13:35:28.618Z,5.58
2022-12-06T13:38:00.473Z,5.64
2022-12-06T13:40:33.159Z,5.84
2022-12-06T13:43:01.952Z,5.87
2022-12-06T13:45:42.907Z,5.79
2022-12-06T13:48:50.056Z,5.73
2022-12-06T13:51:35.017Z,5.62
2022-12-06T13:54:04.788Z,5.56
2022-12-06T13:56:41.838Z,5.55
2022-12-06T13:59:11.485Z,5.75
2022-12-06T14:01:40.211Z,5.51
2022-12-06T14:07:03.137Z,5.71
2022-12-06T14:09:39.819Z,5.71
2022-12-06T14:12:10.057Z,5.88
2022-12-06T14:14:36.690Z,5.64
2022-12-06T14:17:11.127Z,5.64
2022-12-06T14:20:06.646Z,5.48
2022-12-06T14:22:36.282Z,5.84
2022-12-06T14:25:02.895Z,5.69
2022-12-06T14:27:32.107Z,5.63
2022-12-06T14:30:14.530Z,5.66
2022-12-06T14:32:59.081Z,5.70
2022-12-06T14:35:27.797Z,5.82
2022-12-06T14:38:01.583Z,5.68
2022-12-06T14:44:38.207Z,5.64
2022-12-06T14:47:31.414Z,5.83
2022-12-06T14:50:28.112Z,5.55
2022-12-06T14:53:11.561Z,5.73
2022-12-06T14:55:59.375Z,5.68
2022-12-06T14:58:51.618Z,5.74
2022-12-06T15:01:24.235Z,5.44
2022-12-06T15:04:25.238Z,5.40
2022-12-06T15:06:55.196Z,5.36
2022-12-06T15:09:22.344Z,5.46
2022-12-06T15:12:07.789Z,5.49
2022-12-06T15:14:50.094Z,5.76
2022-12-06T15:20:15.458Z,5.49
2022-12-06T15:22:46.265Z,5.37
2022-12-06T15:25:14.190Z,5.43
2022-12-06T15:27:40.800Z,5.52
2022-12-06T15:30:09.200Z,5.57
2022-12-06T15:32:35.788Z,5.54
2022-12-06T15:35:02.432Z,5.62
2022-12-06T15:37:50.108Z,5.53
2022-12-06T15:40:17.962Z,5.61
2022-12-06T15:42:44.563Z,5.64
2022-12-06T15:45:17.304Z,5.37
2022-12-06T15:47:44.939Z,5.41
2022-12-06T15:50:15.079Z,5.46
2022-12-06T15:52:41.806Z,5.58
2022-12-06T15:55:24.854Z,5.42
2022-12-06T15:58:16.860Z,5.48
2022-12-06T16:00:43.476Z,5.37
2022-12-06T16:03:10.157Z,5.27
2022-12-06T16:05:36.836Z,5.38
2022-12-06T16:08:03.768Z,5.28
2022-12-06T16:11:02.950Z,5.38
2022-12-06T16:13:23.442Z,5.42
2022-12-06T16:15:55.071Z,5.48
2022-12-06T16:18:21.664Z,5.38
2022-12-06T16:20:48.694Z,5.42
2022-12-06T16:24:04.536Z,5.38
2022-12-06T16:26:23.579Z,5.43
2022-12-06T16:28:50.156Z,5.46
2022-12-06T16:31:16.974Z,5.44
2022-12-06T16:33:43.675Z,5.30
2022-12-06T16:36:23.016Z,5.31
2022-12-06T16:38:54.345Z,5.27
2022-12-06T16:41:23.257Z,5.36
2022-12-06T16:43:50.522Z,5.27
2022-12-06T16:46:26.273Z,5.09
2022-12-06T16:49:36.768Z,4.98
2022-12-06T16:51:51.867Z,4.99
2022-12-06T16:54:20.975Z,4.99
2022-12-06T16:56:47.575Z,4.71
2022-12-06T16:59:16.241Z,4.90
2022-12-06T17:01:51.834Z,4.83
2022-12-06T17:04:19.073Z,5.02
2022-12-06T17:06:46.904Z,4.92
2022-12-06T17:09:13.955Z,4.99
2022-12-06T17:12:03.129Z,5.09
2022-12-06T17:14:30.257Z,4.76
2022-12-06T17:16:59.207Z,4.73
2022-12-06T17:19:28.324Z,4.88
2022-12-06T17:21:55.307Z,4.87
2022-12-06T17:24:25.877Z,4.73
2022-12-06T17:26:55.853Z,4.80
2022-12-06T17:29:26.148Z,4.88
2022-12-06T17:31:53.070Z,4.59
2022-12-06T17:34:21.915Z,4.86
2022-12-06T17:36:49.655Z,4.85
2022-12-06T17:39:18.876Z,4.86
2022-12-06T17:42:04.215Z,4.96
2022-12-06T17:44:31.015Z,4.88
2022-12-06T17:46:57.628Z,4.85
2022-12-06T17:49:26.259Z,4.91
2022-12-06T17:51:53.379Z,4.88
2022-12-06T17:54:20.687Z,4.90
2022-12-06T17:56:49.682Z,4.92
2022-12-06T17:59:25.388Z,4.82
2022-12-06T18:04:39.891Z,4.97
2022-12-06T18:07:06.496Z,4.98
2022-12-06T18:09:33.101Z,4.96
2022-12-06T18:12:01.095Z,5.01
2022-12-06T18:14:31.009Z,5.10
2022-12-06T18:16:57.741Z,5.20
2022-12-06T18:19:24.385Z,5.09
2022-12-06T18:21:52.985Z,5.10
2022-12-06T18:24:23.170Z,5.10
2022-12-06T18:26:52.332Z,5.10
2022-12-06T18:29:21.934Z,5.03
2022-12-06T18:31:48.859Z,4.89
2022-12-06T18:34:15.779Z,4.93
2022-12-06T18:36:42.606Z,4.95
2022-12-06T18:39:14.984Z,4.92
2022-12-06T18:41:45.460Z,5.03
2022-12-06T18:44:12.908Z,4.91
2022-12-06T18:46:42.430Z,4.94
2022-12-06T18:49:13.244Z,5.07
2022-12-06T18:51:40.165Z,5.03
2022-12-06T18:54:13.460Z,5.13
2022-12-06T18:56:40.030Z,5.18
2022-12-06T18:59:09.247Z,5.02
2022-12-06T19:01:38.668Z,4.96
2022-12-06T19:04:07.054Z,5.17
2022-12-06T19:06:35.767Z,4.94
2022-12-06T19:09:10.806Z,5.09
2022-12-06T19:11:39.261Z,5.19
2022-12-06T19:14:06.036Z,5.30
2022-12-06T19:16:40.103Z,5.29
2022-12-06T19:19:15.836Z,5.29
2022-12-06T19:21:45.610Z,5.25
2022-12-06T19:24:15.751Z,5.18
2022-12-06T19:26:42.992Z,5.08
2022-12-06T19:29:10.055Z,5.09
2022-12-06T19:31:36.932Z,5.18
2022-12-06T19:34:03.795Z,5.26
2022-12-06T19:36:31.570Z,5.36
2022-12-06T19:39:05.885Z,5.36
2022-12-06T19:41:53.487Z,5.33
2022-12-06T19:44:20.225Z,5.32
2022-12-06T19:46:48.391Z,5.42
2022-12-06T19:49:16.936Z,5.43
2022-12-06T19:51:45.404Z,5.34
2022-12-06T19:54:16.291Z,5.35
2022-12-06T19:56:43.241Z,5.38
2022-12-06T19:59:15.975Z,5.35
2022-12-06T20:02:10.353Z,5.29
2022-12-06T20:04:40.066Z,5.38
2022-12-06T20:07:10.766Z,5.33
2022-12-06T20:09:37.553Z,5.37
2022-12-06T20:12:05.306Z,5.37
2022-12-06T20:14:42.410Z,5.47
2022-12-06T20:17:13.947Z,5.49
2022-12-06T20:19:46.328Z,5.44
2022-12-06T20:22:15.665Z,5.48
2022-12-06T20:24:46.371Z,5.44
2022-12-06T20:27:12.932Z,5.40
2022-12-06T20:29:40.131Z,5.48
2022-12-06T20:32:06.806Z,5.50
2022-12-06T20:34:35.166Z,5.54
2022-12-06T20:37:03.804Z,5.50
2022-12-06T20:39:32.842Z,5.50
2022-12-06T20:42:02.015Z,5.47
2022-12-06T20:44:28.652Z,5.43
2022-12-06T20:46:57.227Z,5.47
2022-12-06T20:49:23.877Z,5.37
2022-12-06T20:51:53.282Z,5.41
2022-12-06T20:54:21.492Z,5.33
2022-12-06T20:56:51.406Z,5.26
2022-12-06T20:59:18.323Z,5.37
2022-12-06T21:01:45.124Z,5.32
2022-12-06T21:04:15.058Z,5.25
2022-12-06T21:06:41.841Z,5.22
2022-12-06T21:09:08.715Z,5.23
2022-12-06T21:11:35.485Z,5.19
2022-12-06T21:14:03.967Z,5.19
2022-12-06T21:16:32.991Z,5.25
2022-12-06T21:19:05.930Z,5.21
2022-12-06T21:21:34.819Z,5.28
2022-12-06T21:24:02.720Z,5.54
2022-12-06T21:26:30.150Z,5.62
2022-12-06T21:28:57.171Z,5.48
2022-12-06T21:31:29.437Z,5.49
2022-12-06T21:33:59.766Z,5.41
2022-12-06T21:36:30.183Z,5.19
2022-12-06T21:38:57.997Z,5.47
2022-12-06T21:41:27.085Z,5.48
2022-12-06T21:43:53.636Z,5.57
2022-12-06T21:46:22.268Z,5.57
2022-12-06T21:49:01.159Z,5.49
2022-12-06T21:51:31.120Z,5.44
2022-12-06T21:53:58.240Z,5.38
2022-12-06T21:56:31.273Z,5.55
2022-12-06T21:59:01.042Z,5.33
2022-12-06T22:02:00.188Z,5.36
2022-12-06T22:04:38.429Z,5.40
2022-12-06T22:07:05.212Z,5.28
2022-12-06T22:09:32.920Z,5.14
2022-12-06T22:11:59.629Z,5.23
2022-12-06T22:14:26.377Z,5.29
2022-12-06T22:16:53.215Z,5.25
2022-12-06T22:19:19.963Z,5.46
2022-12-06T22:21:48.285Z,5.29
2022-12-06T22:24:18.040Z,5.45
2022-12-06T22:26:55.498Z,5.39
2022-12-06T22:29:22.499Z,5.45
2022-12-06T22:31:49.139Z,5.58
2022-12-06T22:34:15.835Z,5.55
2022-12-06T22:36:42.401Z,5.47
2022-12-06T22:39:10.287Z,5.35
2022-12-06T22:41:37.240Z,5.48
2022-12-06T22:44:06.409Z,5.33
2022-12-06T22:46:34.533Z,5.25
2022-12-06T22:49:01.700Z,5.25
2022-12-06T22:51:33.742Z,5.50
2022-12-06T22:54:11.007Z,5.39
2022-12-06T22:56:48.651Z,5.36
2022-12-06T22:59:17.085Z,5.24
2022-12-06T23:01:43.901Z,5.26
2022-12-06T23:04:11.547Z,5.55
2022-12-06T23:06:39.404Z,5.52
2022-12-06T23:09:07.697Z,5.59
2022-12-06T23:11:36.251Z,5.44
2022-12-06T23:14:04.372Z,5.31
2022-12-06T23:16:32.455Z,5.50
2022-12-06T23:19:01.523Z,5.63
2022-12-06T23:21:30.697Z,5.63
2022-12-06T23:24:00.929Z,5.75
2022-12-06T23:26:42.373Z,5.65
2022-12-06T23:29:09.412Z,5.78
2022-12-06T23:31:38.813Z,6.07
2022-12-06T23:34:18.339Z,5.88
2022-12-06T23:36:44.916Z,5.85
2022-12-06T23:39:12.225Z,5.68
2022-12-06T23:41:38.987Z,5.72
2022-12-06T23:44:06.576Z,5.67
2022-12-06T23:46:35.689Z,5.71
2022-12-06T23:49:10.299Z,5.59
2022-12-06T23:51:38.632Z,5.70
2022-12-06T23:54:07.368Z,5.91
2022-12-06T23:56:36.705Z,5.82
2022-12-06T23:59:04.912Z,5.67
